createdAt,value
2018-05-29T00:00:27.649Z,2.77
2018-05-29T00:02:55.302Z,3.03
2018-05-29T00:05:23.104Z,3.13
2018-05-29T00:07:51.397Z,2.70
2018-05-29T00:10:19.198Z,2.67
2018-05-29T00:12:46.852Z,2.50
2018-05-29T00:15:14.385Z,2.70
2018-05-29T00:17:42.160Z,2.47
2018-05-29T00:20:09.669Z,2.67
2018-05-29T00:22:37.171Z,2.13
2018-05-29T00:25:04.922Z,2.63
2018-05-29T00:27:32.464Z,2.87
2018-05-29T00:29:59.961Z,3.20
2018-05-29T00:32:27.882Z,2.70
2018-05-29T00:34:55.537Z,2.60
2018-05-29T00:37:23.241Z,2.53
2018-05-29T00:39:51.043Z,2.90
2018-05-29T00:42:18.694Z,2.60
2018-05-29T00:44:46.221Z,2.00
2018-05-29T00:47:14.197Z,2.27
2018-05-29T00:49:42.048Z,2.37
2018-05-29T00:52:09.543Z,2.20
2018-05-29T00:54:37.156Z,2.23
2018-05-29T00:57:04.811Z,2.73
2018-05-29T00:59:32.465Z,2.80
2018-05-29T01:02:00.315Z,2.07
2018-05-29T01:04:28.018Z,2.20
2018-05-29T01:06:55.512Z,2.00
2018-05-29T01:09:23.010Z,2.40
2018-05-29T01:11:50.547Z,2.10
2018-05-29T01:14:18.097Z,2.63
2018-05-29T01:16:45.598Z,2.40
2018-05-29T01:19:13.117Z,2.10
2018-05-29T01:21:40.622Z,2.57
2018-05-29T01:24:08.129Z,2.17
2018-05-29T01:26:35.621Z,2.40
2018-05-29T01:29:03.136Z,2.10
2018-05-29T01:31:30.641Z,2.40
2018-05-29T01:33:58.172Z,2.57
2018-05-29T01:36:25.686Z,2.37
2018-05-29T01:38:53.198Z,2.53
2018-05-29T01:41:20.691Z,2.70
2018-05-29T01:43:48.278Z,2.90
2018-05-29T01:46:15.789Z,2.93
2018-05-29T01:48:43.618Z,2.80
2018-05-29T01:51:11.616Z,3.13
2018-05-29T01:53:39.466Z,2.97
2018-05-29T01:56:08.322Z,3.20
2018-05-29T01:58:36.150Z,3.43
2018-05-29T02:01:04.005Z,2.97
2018-05-29T02:03:31.850Z,3.03
2018-05-29T02:05:59.375Z,3.50
2018-05-29T02:08:27.009Z,3.20
2018-05-29T02:10:54.661Z,3.47
2018-05-29T02:13:22.464Z,3.67
2018-05-29T02:15:50.148Z,3.93
2018-05-29T02:18:17.664Z,4.13
2018-05-29T02:20:45.194Z,3.63
2018-05-29T02:23:12.713Z,4.17
2018-05-29T02:25:40.196Z,4.20
2018-05-29T02:28:07.685Z,3.67
2018-05-29T02:30:35.252Z,3.70
2018-05-29T02:33:02.765Z,4.10
2018-05-29T02:35:30.280Z,5.20
2018-05-29T02:37:57.803Z,4.20
2018-05-29T02:40:25.356Z,5.20
2018-05-29T02:42:52.927Z,4.53
2018-05-29T02:45:20.435Z,4.70
2018-05-29T02:47:48.035Z,4.50
2018-05-29T02:50:15.538Z,5.53
2018-05-29T02:52:43.038Z,4.90
2018-05-29T02:55:10.548Z,5.63
2018-05-29T02:57:38.061Z,4.40
2018-05-29T03:00:05.593Z,4.50
2018-05-29T03:02:33.362Z,4.67
2018-05-29T03:05:01.026Z,4.67
2018-05-29T03:07:28.724Z,4.40
2018-05-29T03:09:56.530Z,5.03
2018-05-29T03:12:24.336Z,5.03
2018-05-29T03:14:52.174Z,5.00
2018-05-29T03:17:19.873Z,5.40
2018-05-29T03:19:47.514Z,5.13
2018-05-29T03:22:15.013Z,5.43
2018-05-29T03:24:42.844Z,5.47
2018-05-29T03:27:10.342Z,4.87
2018-05-29T03:29:38.011Z,5.77
2018-05-29T03:32:05.509Z,5.27
2018-05-29T03:34:33.013Z,5.63
2018-05-29T03:37:00.519Z,5.77
2018-05-29T03:39:28.370Z,5.67
2018-05-29T03:41:55.881Z,6.00
2018-05-29T03:44:23.875Z,6.33
2018-05-29T03:46:51.726Z,6.80
2018-05-29T03:49:19.572Z,6.77
2018-05-29T03:51:47.276Z,6.80
2018-05-29T03:54:14.777Z,6.10
2018-05-29T03:56:42.383Z,6.30
2018-05-29T03:59:09.992Z,6.00
2018-05-29T04:01:37.843Z,6.27
2018-05-29T04:04:05.344Z,6.43
2018-05-29T04:06:32.952Z,6.80
2018-05-29T04:09:00.652Z,6.63
2018-05-29T04:11:28.214Z,6.03
2018-05-29T04:13:55.762Z,5.97
2018-05-29T04:16:23.448Z,6.40
2018-05-29T04:18:50.949Z,6.37
2018-05-29T04:21:18.453Z,6.67
2018-05-29T04:23:46.011Z,7.07
2018-05-29T04:26:13.561Z,5.93
2018-05-29T04:28:41.073Z,7.37
2018-05-29T04:31:08.597Z,6.10
2018-05-29T04:33:36.107Z,6.27
2018-05-29T04:36:03.811Z,6.80
2018-05-29T04:38:31.663Z,6.87
2018-05-29T04:40:59.511Z,7.70
2018-05-29T04:43:27.558Z,6.63
2018-05-29T04:45:55.094Z,6.77
2018-05-29T04:48:22.716Z,7.17
2018-05-29T04:50:50.420Z,7.60
2018-05-29T04:53:17.903Z,6.73
2018-05-29T04:55:45.880Z,7.30
2018-05-29T04:58:13.677Z,6.17
2018-05-29T05:00:41.525Z,7.10
2018-05-29T05:03:09.379Z,7.07
2018-05-29T05:05:37.031Z,8.07
2018-05-29T05:08:04.557Z,7.07
2018-05-29T05:10:32.338Z,9.00
2018-05-29T05:13:00.036Z,7.80
2018-05-29T05:15:27.634Z,7.60
2018-05-29T05:17:56.529Z,7.37
2018-05-29T05:20:24.058Z,6.70
2018-05-29T05:22:51.629Z,7.90
2018-05-29T05:25:19.290Z,7.17
2018-05-29T05:27:47.092Z,7.57
2018-05-29T05:30:14.608Z,8.30
2018-05-29T05:32:42.112Z,6.90
2018-05-29T05:35:10.053Z,7.30
2018-05-29T05:37:37.582Z,7.80
2018-05-29T05:40:05.124Z,7.27
2018-05-29T05:42:32.625Z,8.57
2018-05-29T05:45:00.156Z,7.77
2018-05-29T05:47:27.670Z,8.13
2018-05-29T05:49:55.178Z,10.90
2018-05-29T05:52:22.688Z,7.60
2018-05-29T05:54:50.269Z,6.73
2018-05-29T05:57:17.878Z,7.63
2018-05-29T05:59:45.433Z,7.20
2018-05-29T06:02:12.937Z,6.63
2018-05-29T06:04:40.446Z,7.47
2018-05-29T06:07:07.943Z,6.83
2018-05-29T06:09:35.444Z,7.67
2018-05-29T06:12:02.959Z,7.57
2018-05-29T06:14:30.476Z,7.70
2018-05-29T06:16:58.001Z,6.73
2018-05-29T06:19:25.564Z,7.80
2018-05-29T06:21:53.085Z,7.90
2018-05-29T06:24:20.653Z,7.57
2018-05-29T06:26:48.265Z,7.17
2018-05-29T06:29:15.924Z,6.27
2018-05-29T06:31:43.791Z,7.73
2018-05-29T06:34:11.297Z,6.47
2018-05-29T06:36:38.807Z,6.97
2018-05-29T06:39:06.314Z,6.80
2018-05-29T06:41:33.996Z,8.43
2018-05-29T06:44:01.795Z,6.30
2018-05-29T06:46:29.506Z,6.33
2018-05-29T06:48:57.040Z,7.27
2018-05-29T06:51:24.804Z,6.73
2018-05-29T06:53:52.800Z,6.03
2018-05-29T06:56:20.328Z,6.40
2018-05-29T06:58:47.848Z,6.73
2018-05-29T07:01:15.367Z,6.70
2018-05-29T07:03:43.613Z,6.97
2018-05-29T07:06:11.461Z,6.77
2018-05-29T07:08:39.335Z,6.83
2018-05-29T07:11:07.012Z,6.10
2018-05-29T07:13:34.673Z,6.03
2018-05-29T07:16:02.176Z,6.43
2018-05-29T07:18:29.669Z,6.67
2018-05-29T07:20:57.436Z,6.13
2018-05-29T07:23:24.939Z,6.13
2018-05-29T07:25:52.544Z,5.80
2018-05-29T07:28:20.196Z,6.57
2018-05-29T07:30:47.694Z,7.73
2018-05-29T07:33:15.239Z,5.77
2018-05-29T07:35:42.835Z,5.87
2018-05-29T07:38:10.761Z,6.17
2018-05-29T07:40:38.609Z,6.37
2018-05-29T07:43:06.220Z,6.70
2018-05-29T07:45:34.116Z,8.83
2018-05-29T07:48:01.827Z,6.83
2018-05-29T07:50:29.617Z,8.13
2018-05-29T07:52:57.152Z,6.33
2018-05-29T07:55:24.929Z,6.10
2018-05-29T07:57:52.775Z,6.07
2018-05-29T08:00:20.268Z,5.13
2018-05-29T08:02:48.278Z,5.50
2018-05-29T08:05:16.127Z,6.27
2018-05-29T08:07:43.828Z,6.17
2018-05-29T08:10:11.685Z,5.77
2018-05-29T08:12:39.237Z,5.43
2018-05-29T08:15:06.877Z,4.87
2018-05-29T08:17:34.993Z,5.80
2018-05-29T08:20:02.835Z,5.37
2018-05-29T08:22:30.541Z,5.23
2018-05-29T08:24:58.078Z,5.43
2018-05-29T08:27:25.845Z,5.87
2018-05-29T08:29:53.329Z,4.90
2018-05-29T08:32:20.958Z,5.47
2018-05-29T08:34:48.757Z,5.03
2018-05-29T08:37:16.410Z,5.20
2018-05-29T08:39:44.373Z,5.20
2018-05-29T08:42:12.307Z,5.43
2018-05-29T08:44:40.011Z,5.20
2018-05-29T08:47:08.009Z,5.13
2018-05-29T08:49:35.663Z,5.20
2018-05-29T08:52:03.361Z,5.03
2018-05-29T08:54:31.165Z,5.23
2018-05-29T08:56:58.818Z,3.93
2018-05-29T08:59:26.521Z,4.57
2018-05-29T09:01:54.172Z,4.47
2018-05-29T09:04:22.011Z,5.23
2018-05-29T09:06:49.826Z,4.30
2018-05-29T09:09:17.329Z,4.70
2018-05-29T09:11:44.925Z,4.60
2018-05-29T09:14:12.409Z,4.80
2018-05-29T09:16:39.915Z,4.93
2018-05-29T09:19:07.420Z,4.80
2018-05-29T09:21:34.949Z,4.37
2018-05-29T09:24:02.461Z,4.43
2018-05-29T09:26:29.968Z,4.20
2018-05-29T09:28:57.492Z,4.17
2018-05-29T09:31:24.983Z,4.00
2018-05-29T09:33:52.499Z,3.70
2018-05-29T09:36:20.013Z,3.53
2018-05-29T09:38:47.519Z,4.17
2018-05-29T09:41:15.035Z,3.97
2018-05-29T09:43:42.582Z,3.90
2018-05-29T09:46:10.081Z,4.37
2018-05-29T09:48:37.641Z,4.17
2018-05-29T09:51:05.140Z,4.00
2018-05-29T09:53:32.690Z,4.23
2018-05-29T09:56:00.181Z,4.07
2018-05-29T09:58:27.697Z,4.50
2018-05-29T10:00:55.194Z,4.77
2018-05-29T10:03:22.720Z,4.37
2018-05-29T10:05:50.219Z,4.43
2018-05-29T10:08:17.871Z,3.83
2018-05-29T10:10:45.388Z,5.10
2018-05-29T10:13:13.329Z,4.70
2018-05-29T10:15:41.172Z,4.37
2018-05-29T10:18:09.024Z,4.90
2018-05-29T10:20:36.529Z,4.53
2018-05-29T10:23:04.032Z,5.27
2018-05-29T10:25:31.840Z,3.73
2018-05-29T10:27:59.638Z,3.93
2018-05-29T10:30:27.489Z,4.77
2018-05-29T10:32:55.338Z,4.67
2018-05-29T10:35:22.840Z,5.23
2018-05-29T10:37:50.498Z,4.80
2018-05-29T10:40:17.993Z,5.03
2018-05-29T10:42:45.951Z,4.50
2018-05-29T10:45:13.656Z,4.70
2018-05-29T10:47:41.242Z,5.13
2018-05-29T10:50:08.764Z,5.00
2018-05-29T10:52:36.284Z,6.03
2018-05-29T10:55:03.851Z,5.10
2018-05-29T10:57:31.361Z,4.70
2018-05-29T10:59:58.880Z,4.63
2018-05-29T11:02:26.392Z,4.97
2018-05-29T11:04:53.894Z,4.83
2018-05-29T11:07:21.700Z,4.80
2018-05-29T11:09:49.355Z,4.70
2018-05-29T11:12:16.942Z,4.50
2018-05-29T11:14:44.663Z,4.43
2018-05-29T11:17:12.511Z,4.73
2018-05-29T11:19:40.167Z,4.53
2018-05-29T11:22:08.017Z,4.10
2018-05-29T11:24:35.718Z,4.23
2018-05-29T11:27:03.401Z,4.13
2018-05-29T11:29:31.173Z,3.37
2018-05-29T11:31:58.873Z,3.63
2018-05-29T11:34:26.534Z,3.20
2018-05-29T11:36:54.039Z,3.20
2018-05-29T11:39:21.641Z,4.80
2018-05-29T11:41:49.297Z,3.13
2018-05-29T11:44:17.094Z,3.60
2018-05-29T11:46:44.943Z,3.90
2018-05-29T11:49:12.644Z,3.67
2018-05-29T11:51:40.487Z,3.17
2018-05-29T11:54:08.152Z,4.13
2018-05-29T11:56:35.605Z,4.07
2018-05-29T11:59:03.265Z,3.70
2018-05-29T12:01:31.063Z,4.27
2018-05-29T12:03:58.915Z,7.43
2018-05-29T12:06:26.412Z,4.47
2018-05-29T12:08:53.865Z,4.70
2018-05-29T12:11:21.331Z,4.67
2018-05-29T12:13:48.777Z,3.97
2018-05-29T12:16:16.228Z,4.07
2018-05-29T12:18:43.851Z,4.30
2018-05-29T12:21:11.329Z,3.80
2018-05-29T12:23:38.929Z,3.67
2018-05-29T12:26:06.433Z,4.20
2018-05-29T12:28:33.944Z,4.30
2018-05-29T12:31:01.466Z,3.73
2018-05-29T12:33:28.988Z,4.00
2018-05-29T12:35:56.638Z,4.23
2018-05-29T12:38:24.488Z,3.40
2018-05-29T12:40:52.276Z,3.10
2018-05-29T12:43:19.760Z,3.10
2018-05-29T12:45:47.262Z,3.20
2018-05-29T12:48:14.759Z,3.00
2018-05-29T12:50:42.266Z,3.00
2018-05-29T12:53:10.016Z,3.27
2018-05-29T12:55:37.913Z,3.30
2018-05-29T12:58:05.397Z,2.47
2018-05-29T13:00:33.170Z,3.57
2018-05-29T13:03:01.020Z,4.00
2018-05-29T13:05:28.495Z,2.90
2018-05-29T13:07:56.332Z,2.90
2018-05-29T13:10:23.797Z,3.00
2018-05-29T13:12:51.244Z,4.07
2018-05-29T13:15:19.180Z,3.10
2018-05-29T13:17:46.669Z,2.87
2018-05-29T13:20:14.399Z,5.37
2018-05-29T13:22:42.252Z,2.80
2018-05-29T13:25:09.954Z,2.70
2018-05-29T13:27:37.490Z,4.00
2018-05-29T13:30:05.057Z,3.20
2018-05-29T13:32:32.725Z,2.67
2018-05-29T13:35:00.323Z,2.50
2018-05-29T13:37:27.769Z,3.07
2018-05-29T13:39:55.436Z,2.87
2018-05-29T13:42:23.133Z,4.07
2018-05-29T13:44:50.740Z,3.27
2018-05-29T13:47:18.589Z,2.90
2018-05-29T13:49:46.294Z,2.77
2018-05-29T13:52:13.737Z,3.10
2018-05-29T13:54:41.404Z,2.93
2018-05-29T13:57:09.075Z,3.33
2018-05-29T13:59:37.067Z,3.00
2018-05-29T14:02:04.907Z,3.17
2018-05-29T14:04:32.417Z,3.40
2018-05-29T14:07:00.061Z,2.50
2018-05-29T14:09:27.717Z,2.60
2018-05-29T14:11:55.182Z,3.10
2018-05-29T14:14:22.974Z,2.83
2018-05-29T14:16:50.412Z,3.27
2018-05-29T14:19:18.087Z,3.37
2018-05-29T14:21:45.591Z,3.10
2018-05-29T14:24:13.393Z,3.17
2018-05-29T14:26:41.096Z,2.87
2018-05-29T14:29:08.899Z,2.47
2018-05-29T14:31:36.614Z,2.93
2018-05-29T14:34:04.204Z,2.93
2018-05-29T14:36:31.711Z,2.87
2018-05-29T14:38:59.202Z,2.53
2018-05-29T14:41:26.771Z,3.27
2018-05-29T14:43:54.337Z,2.90
2018-05-29T14:46:21.729Z,2.90
2018-05-29T14:48:49.221Z,3.10
2018-05-29T14:51:16.990Z,2.90
2018-05-29T14:53:44.429Z,2.87
2018-05-29T14:56:12.294Z,2.93
2018-05-29T14:58:39.776Z,2.97
2018-05-29T15:01:07.233Z,2.90
2018-05-29T15:03:34.726Z,3.10
2018-05-29T15:06:02.190Z,3.03
2018-05-29T15:08:29.638Z,3.00
2018-05-29T15:10:57.076Z,2.80
2018-05-29T15:13:24.547Z,2.80
2018-05-29T15:15:51.981Z,2.90
2018-05-29T15:18:19.802Z,2.70
2018-05-29T15:20:47.356Z,2.50
2018-05-29T15:23:15.110Z,2.87
2018-05-29T15:25:42.960Z,3.40
2018-05-29T15:28:11.005Z,3.13
2018-05-29T15:30:38.661Z,2.90
2018-05-29T15:33:06.096Z,3.07
2018-05-29T15:35:33.966Z,2.77
2018-05-29T15:38:01.670Z,3.07
2018-05-29T15:40:29.127Z,3.07
2018-05-29T15:42:56.731Z,3.80
2018-05-29T15:45:24.579Z,3.17
2018-05-29T15:47:52.030Z,3.17
2018-05-29T15:50:19.885Z,2.77
2018-05-29T15:52:47.590Z,3.60
2018-05-29T15:55:15.096Z,2.97
2018-05-29T15:57:42.700Z,3.10
2018-05-29T16:00:10.377Z,3.20
2018-05-29T16:02:37.836Z,3.37
2018-05-29T16:05:05.611Z,3.13
2018-05-29T16:07:33.543Z,3.53
2018-05-29T16:10:01.117Z,3.17
2018-05-29T16:12:28.578Z,3.20
2018-05-29T16:14:56.058Z,3.13
2018-05-29T16:17:23.587Z,3.07
2018-05-29T16:19:51.033Z,3.70
2018-05-29T16:22:18.502Z,3.07
2018-05-29T16:24:45.945Z,3.03
2018-05-29T16:27:13.415Z,3.23
2018-05-29T16:29:40.861Z,2.93
2018-05-29T16:32:08.351Z,3.40
2018-05-29T16:34:36.137Z,3.10
2018-05-29T16:37:03.780Z,3.23
2018-05-29T16:39:31.822Z,3.70
2018-05-29T16:41:59.311Z,3.30
2018-05-29T16:44:26.939Z,3.07
2018-05-29T16:46:54.396Z,3.53
2018-05-29T16:49:22.195Z,3.37
2018-05-29T16:51:49.648Z,3.37
2018-05-29T16:54:17.108Z,3.27
2018-05-29T16:56:44.644Z,3.87
2018-05-29T16:59:12.141Z,3.80
2018-05-29T17:01:39.618Z,4.00
2018-05-29T17:04:07.081Z,4.13
2018-05-29T17:06:34.553Z,3.90
2018-05-29T17:09:02.033Z,3.73
2018-05-29T17:11:29.629Z,4.00
2018-05-29T17:13:57.094Z,3.73
2018-05-29T17:16:24.557Z,3.57
2018-05-29T17:18:52.019Z,3.97
2018-05-29T17:21:19.775Z,3.93
2018-05-29T17:23:47.221Z,3.93
2018-05-29T17:26:14.834Z,3.90
2018-05-29T17:28:42.546Z,3.50
2018-05-29T17:31:10.193Z,3.77
2018-05-29T17:33:37.994Z,3.40
2018-05-29T17:36:05.694Z,3.63
2018-05-29T17:38:33.254Z,3.27
2018-05-29T17:41:00.777Z,3.43
2018-05-29T17:43:28.608Z,3.83
2018-05-29T17:45:56.457Z,3.73
2018-05-29T17:48:24.306Z,4.73
2018-05-29T17:50:52.020Z,4.13
2018-05-29T17:53:19.809Z,3.63
2018-05-29T17:55:47.510Z,3.63
2018-05-29T17:58:15.313Z,3.33
2018-05-29T18:00:42.968Z,3.73
2018-05-29T18:03:10.705Z,3.83
2018-05-29T18:05:39.063Z,3.97
2018-05-29T18:08:06.807Z,4.03
2018-05-29T18:10:34.562Z,4.13
2018-05-29T18:13:02.218Z,3.77
2018-05-29T18:15:29.918Z,3.87
2018-05-29T18:17:57.765Z,3.63
2018-05-29T18:20:25.374Z,3.53
2018-05-29T18:22:53.077Z,3.60
2018-05-29T18:25:20.537Z,3.77
2018-05-29T18:27:48.006Z,3.77
2018-05-29T18:30:15.549Z,3.70
2018-05-29T18:32:43.000Z,4.13
2018-05-29T18:35:10.457Z,3.30
2018-05-29T18:37:38.237Z,4.00
2018-05-29T18:40:06.011Z,4.37
2018-05-29T18:42:33.712Z,3.83
2018-05-29T18:45:01.317Z,4.00
2018-05-29T18:47:28.827Z,3.40
2018-05-29T18:49:56.333Z,3.50
2018-05-29T18:52:23.810Z,4.40
2018-05-29T18:54:51.322Z,4.10
2018-05-29T18:57:18.789Z,3.63
2018-05-29T18:59:46.238Z,3.73
2018-05-29T19:02:13.769Z,3.73
2018-05-29T19:04:41.308Z,4.00
2018-05-29T19:07:08.803Z,4.00
2018-05-29T19:09:36.267Z,4.00
2018-05-29T19:12:04.131Z,4.17
2018-05-29T19:14:31.869Z,5.47
2018-05-29T19:16:59.738Z,3.77
2018-05-29T19:19:27.628Z,3.63
2018-05-29T19:21:55.532Z,4.07
2018-05-29T19:24:23.776Z,4.47
2018-05-29T19:26:51.370Z,4.00
2018-05-29T19:29:19.431Z,3.43
2018-05-29T19:31:47.522Z,4.00
2018-05-29T19:34:15.373Z,3.63
2018-05-29T19:36:43.381Z,3.87
2018-05-29T19:39:11.171Z,4.10
2018-05-29T19:41:39.121Z,3.83
2018-05-29T19:44:07.068Z,4.07
2018-05-29T19:46:35.025Z,4.53
2018-05-29T19:49:02.867Z,4.00
2018-05-29T19:51:30.911Z,4.93
2018-05-29T19:53:58.530Z,4.70
2018-05-29T19:56:26.251Z,4.03
2018-05-29T19:58:54.265Z,4.23
2018-05-29T20:01:22.288Z,4.40
2018-05-29T20:03:50.249Z,4.17
2018-05-29T20:06:18.152Z,3.83
2018-05-29T20:08:46.060Z,4.40
2018-05-29T20:11:14.233Z,4.43
2018-05-29T20:13:42.351Z,4.20
2018-05-29T20:16:10.383Z,4.10
2018-05-29T20:18:38.450Z,3.90
2018-05-29T20:21:06.408Z,4.50
2018-05-29T20:23:34.537Z,4.60
2018-05-29T20:26:02.534Z,3.93
2018-05-29T20:28:30.351Z,3.93
2018-05-29T20:30:58.283Z,3.87
2018-05-29T20:33:26.031Z,3.60
2018-05-29T20:35:53.786Z,4.03
2018-05-29T20:38:21.533Z,3.93
2018-05-29T20:40:49.290Z,4.30
2018-05-29T20:43:17.355Z,3.67
2018-05-29T20:45:45.189Z,4.27
2018-05-29T20:48:12.671Z,4.00
2018-05-29T20:50:40.118Z,4.53
2018-05-29T20:53:07.598Z,3.53
2018-05-29T20:55:35.247Z,3.63
2018-05-29T20:58:02.721Z,3.67
2018-05-29T21:00:30.167Z,3.40
2018-05-29T21:02:57.620Z,3.00
2018-05-29T21:05:25.077Z,3.67
2018-05-29T21:07:52.542Z,3.93
2018-05-29T21:10:20.010Z,4.13
2018-05-29T21:12:47.460Z,3.73
2018-05-29T21:15:14.913Z,3.57
2018-05-29T21:17:42.376Z,3.93
2018-05-29T21:20:09.828Z,3.30
2018-05-29T21:22:37.293Z,3.67
2018-05-29T21:25:04.749Z,3.13
2018-05-29T21:27:32.357Z,3.20
2018-05-29T21:29:59.814Z,3.60
2018-05-29T21:32:27.269Z,3.50
2018-05-29T21:34:54.737Z,3.30
2018-05-29T21:37:22.198Z,2.93
2018-05-29T21:39:49.652Z,3.30
2018-05-29T21:42:17.111Z,3.53
2018-05-29T21:44:44.597Z,3.47
2018-05-29T21:47:12.051Z,4.53
2018-05-29T21:49:39.513Z,3.40
2018-05-29T21:52:06.968Z,3.50
2018-05-29T21:54:34.522Z,2.87
2018-05-29T21:57:01.999Z,2.80
2018-05-29T21:59:29.745Z,3.27
2018-05-29T22:01:57.201Z,2.73
2018-05-29T22:04:24.817Z,2.90
2018-05-29T22:06:52.407Z,3.03
2018-05-29T22:09:19.927Z,2.97
2018-05-29T22:11:47.750Z,2.60
2018-05-29T22:14:15.467Z,2.20
2018-05-29T22:16:43.106Z,2.53
2018-05-29T22:19:10.762Z,2.00
2018-05-29T22:21:38.224Z,2.70
2018-05-29T22:24:05.829Z,2.37
2018-05-29T22:26:33.475Z,2.77
2018-05-29T22:29:01.324Z,2.57
2018-05-29T22:31:29.176Z,2.73
2018-05-29T22:33:57.032Z,2.90
2018-05-29T22:36:24.676Z,2.67
2018-05-29T22:38:52.384Z,2.60
2018-05-29T22:41:19.869Z,2.20
2018-05-29T22:43:47.496Z,2.50
2018-05-29T22:46:15.000Z,2.90
2018-05-29T22:48:42.610Z,2.40
2018-05-29T22:51:10.257Z,3.13
2018-05-29T22:53:37.915Z,2.70
2018-05-29T22:56:05.711Z,2.80
2018-05-29T22:58:33.420Z,2.50
2018-05-29T23:01:01.219Z,2.50
2018-05-29T23:03:28.922Z,2.83
2018-05-29T23:05:56.574Z,2.83
2018-05-29T23:08:24.372Z,2.57
2018-05-29T23:10:52.076Z,2.83
2018-05-29T23:13:19.676Z,2.47
2018-05-29T23:15:47.528Z,2.90
2018-05-29T23:18:15.229Z,2.73
2018-05-29T23:20:42.714Z,2.70
2018-05-29T23:23:10.200Z,2.43
2018-05-29T23:25:38.141Z,2.90
2018-05-29T23:28:05.845Z,3.87
2018-05-29T23:30:33.646Z,2.67
2018-05-29T23:33:01.157Z,2.90
2018-05-29T23:35:28.698Z,3.07
2018-05-29T23:37:56.211Z,2.73
2018-05-29T23:40:23.911Z,2.33
2018-05-29T23:42:51.414Z,2.97
2018-05-29T23:45:19.021Z,2.43
2018-05-29T23:47:46.684Z,2.70
2018-05-29T23:50:14.480Z,2.73
2018-05-29T23:52:42.329Z,2.63
2018-05-29T23:55:10.182Z,2.87
2018-05-29T23:57:37.881Z,3.00
